Terminal Aerodrome Forecast
Issued by NWS Twin Cities, MN

Home | Current Version | Previous Version | Graphics & Text | Print | Product List | Glossary On
Versions: 1 2 3 4 5 6 7 8 9 10 11 12 13 14 15 16
000
FTUS43 KMPX 290900 AAA
TAFEAU
TAF AMD
KEAU 290916Z 2909/3006 14007KT 5SM BR VCSH OVC007
      TEMPO 2909/2911 3SM -SHRA BR OVC003
     FM291700 18009KT P6SM SCT012 BKN060
     FM292100 20008KT P6SM VCSH SCT025 OVC120 PROB30 2922/3002 5SM
      -TSRA OVC025CB=

USA.gov is the U.S. government's official web portal to all federal, state and local government web resources and services.